Aasiaat

KL  EN  DA
ASIAQ
Weather Now GREENLAND SURVEY
Updated [WGT/WGST] Temperature [°C] Wind [m/s] Air pressure [hPa] Relative humidity [%] Precipitation [mm]
Present Wind chill Speed Max
25.02 07:00-13,8-24,38,2 ⇒10,81013850,2
25.02 06:00-13,4-20,63,8 ⇒6,21013790,1
25.02 05:00-13,7-24,07,7 ⇒9,81013830,2
25.02 04:00-14,1-21,74,1 ⇑5,71013680,3
25.02 03:00-14,4-22,34,4 ⇑6,21013760,1
25.02 02:00-14,5-22,84,7 ⇑5,71012760,0
25.02 01:00-14,6-22,94,7 ⇑5,71012760,0
25.02 00:00-14,6-23,45,2 ⇖6,71012770,1
24.02 23:00-14,3-22,95,1 ⇑6,71011740,0
24.02 22:00-14,1-22,54,9 ⇑7,21011720,3
24.02 21:00-14,1-22,44,9 ⇑6,71010700,0
24.02 20:00-14,2-23,25,7 ⇑7,71009710,4
24.02 19:00-14,2-23,15,4 ⇑8,21009710,0
24.02 18:00-14,1-22,24,6 ⇑7,71008710,0
24.02 17:00-14,0-21,33,8 ⇗4,61007760,0
24.02 16:00-14,4-24,36,9 ⇑10,31006830,2
24.02 15:00-14,4-24,26,8 ⇑8,81005790,4
24.02 14:00-14,3-23,96,4 ⇑9,31004750,3
24.02 13:00-14,6-24,46,7 ⇑8,81003770,1
24.02 12:00-14,3-21,73,9 ⇑5,71003740,0
24.02 11:00-14,2-23,25,7 ⇗7,71002770,0
24.02 10:00-13,8-21,03,8 ⇗5,11001730,1
24.02 09:00-13,7-19,82,9 ⇑4,11001710,1
24.02 08:00-13,9-18,92,1 ⇑2,61000680,0
24.02 07:00-14,2-21,43,7 ⇗5,1999710,0
Position: (68.7166666666,-52.78333333)

[Back]